Time,TemperatureF,DewpointF,PressureIn,WindDirection,WindDirectionDegrees,WindSpeedMPH,WindSpeedGustMPH,Humidity,HourlyPrecipIn,Conditions,Clouds,dailyrainin,SoftwareType,DateUTC
2013-06-05 00:00:00,53.5,48.2,30.11,NNW,336,0.0,0.0,82,0.00,,OVC009,0.00,VWS V14.00,2013-06-05 04:00:00,
2013-06-05 00:01:00,53.5,48.2,30.11,NNW,336,0.0,0.0,82,0.00,,CLR,0.00,VWS V14.00,2013-06-05 04:01:00,
2013-06-05 00:02:00,53.6,47.9,30.11,NNW,336,0.0,0.0,81,0.00,,CLR,0.00,VWS V14.00,2013-06-05 04:02:00,
2013-06-05 00:03:00,53.7,48.3,30.11,NNW,336,0.0,0.0,82,0.00,,CLR,0.00,VWS V14.00,2013-06-05 04:03:00,
2013-06-05 00:06:00,53.6,49.2,30.11,NNW,335,0.0,0.0,85,0.00,,CLR,0.00,VWS V14.00,2013-06-05 04:06:00,
2013-06-05 00:11:00,53.1,48.7,30.11,NNW,335,0.0,0.0,85,0.00,,CLR,0.00,VWS V14.00,2013-06-05 04:11:00,
2013-06-05 00:16:00,52.7,48.3,30.11,NNW,336,0.0,0.0,85,0.00,,CLR,0.00,VWS V14.00,2013-06-05 04:16:00,
2013-06-05 00:21:00,52.7,49.0,30.11,South,184,0.0,0.0,87,0.00,,CLR,0.00,VWS V14.00,2013-06-05 04:21:00,
2013-06-05 00:26:00,52.6,48.2,30.11,South,184,0.0,0.0,85,0.00,,CLR,0.00,VWS V14.00,2013-06-05 04:26:00,
2013-06-05 00:30:00,52.6,48.5,30.11,South,184,0.0,0.0,86,0.00,,OVC009,0.00,VWS V14.00,2013-06-05 04:30:00,
2013-06-05 00:31:00,52.5,48.4,30.11,South,185,0.0,0.0,86,0.00,,CLR,0.00,VWS V14.00,2013-06-05 04:31:00,
2013-06-05 00:36:00,52.2,48.2,30.11,South,185,0.0,0.0,86,0.00,,CLR,0.00,VWS V14.00,2013-06-05 04:36:00,
2013-06-05 00:42:00,51.9,48.2,30.11,South,184,0.0,0.0,87,0.00,,CLR,0.00,VWS V14.00,2013-06-05 04:42:00,
2013-06-05 00:47:00,51.6,47.9,30.11,South,184,0.0,0.0,87,0.00,,CLR,0.00,VWS V14.00,2013-06-05 04:47:00,
2013-06-05 00:52:00,51.3,47.3,30.11,South,184,0.0,0.0,86,0.00,,CLR,0.00,VWS V14.00,2013-06-05 04:52:00,
2013-06-05 00:57:00,51.1,46.8,30.11,South,185,0.0,0.0,85,0.00,,CLR,0.00,VWS V14.00,2013-06-05 04:57:00,
2013-06-05 01:00:00,51.1,47.1,30.11,South,184,0.0,0.0,86,0.00,,OVC009,0.00,VWS V14.00,2013-06-05 05:00:00,
2013-06-05 01:02:00,51.1,47.1,30.11,South,185,0.0,0.0,86,0.00,,CLR,0.00,VWS V14.00,2013-06-05 05:02:00,
2013-06-05 01:07:00,51.0,47.3,30.11,South,184,0.0,0.0,87,0.00,,CLR,0.00,VWS V14.00,2013-06-05 05:07:00,
2013-06-05 01:12:00,50.8,46.8,30.11,South,184,0.0,0.0,86,0.00,,CLR,0.00,VWS V14.00,2013-06-05 05:12:00,
2013-06-05 01:17:00,50.9,46.2,30.11,South,184,0.0,0.0,84,0.00,,CLR,0.00,VWS V14.00,2013-06-05 05:17:00,
2013-06-05 01:23:00,51.2,45.9,30.11,South,184,0.0,0.0,82,0.00,,CLR,0.00,VWS V14.00,2013-06-05 05:23:00,
2013-06-05 01:28:00,51.5,46.5,30.10,South,185,0.0,0.0,83,0.00,,CLR,0.00,VWS V14.00,2013-06-05 05:28:00,
2013-06-05 01:30:00,51.5,46.8,30.10,South,184,0.0,0.0,84,0.00,,OVC009,0.00,VWS V14.00,2013-06-05 05:30:00,
2013-06-05 01:33:00,51.5,46.5,30.11,South,184,0.0,0.0,83,0.00,,CLR,0.00,VWS V14.00,2013-06-05 05:33:00,
2013-06-05 01:38:00,51.7,46.1,30.11,South,185,0.0,0.0,81,0.00,,CLR,0.00,VWS V14.00,2013-06-05 05:38:00,
2013-06-05 01:43:00,51.8,47.1,30.11,South,185,0.0,0.0,84,0.00,,CLR,0.00,VWS V14.00,2013-06-05 05:43:00,
2013-06-05 01:48:00,51.9,46.6,30.11,South,184,0.0,0.0,82,0.00,,CLR,0.00,VWS V14.00,2013-06-05 05:48:00,
2013-06-05 01:53:00,51.7,46.4,30.11,South,185,0.0,0.0,82,0.00,,CLR,0.00,VWS V14.00,2013-06-05 05:53:00,
2013-06-05 01:58:00,51.3,46.0,30.11,South,184,0.0,0.0,82,0.00,,CLR,0.00,VWS V14.00,2013-06-05 05:58:00,
2013-06-05 02:00:00,51.3,46.3,30.11,South,184,0.0,0.0,83,0.00,,OVC009,0.00,VWS V14.00,2013-06-05 06:00:00,
2013-06-05 02:03:00,51.2,46.2,30.11,South,184,0.0,0.0,83,0.00,,CLR,0.00,VWS V14.00,2013-06-05 06:03:00,
2013-06-05 02:08:00,50.9,45.9,30.11,South,184,0.0,0.0,83,0.00,,CLR,0.00,VWS V14.00,2013-06-05 06:08:00,
2013-06-05 02:13:00,50.8,46.2,30.11,South,184,0.0,0.0,84,0.00,,CLR,0.00,VWS V14.00,2013-06-05 06:13:00,
2013-06-05 02:18:00,50.8,47.1,30.12,South,185,0.0,0.0,87,0.00,,CLR,0.00,VWS V14.00,2013-06-05 06:18:00,
2013-06-05 02:24:00,50.6,46.6,30.12,South,184,0.0,0.0,86,0.00,,CLR,0.00,VWS V14.00,2013-06-05 06:24:00,
2013-06-05 02:29:00,50.3,46.0,30.12,South,185,0.0,0.0,85,0.00,,CLR,0.00,VWS V14.00,2013-06-05 06:29:00,
2013-06-05 02:30:00,50.3,46.0,30.12,South,184,0.0,0.0,85,0.00,,OVC009,0.00,VWS V14.00,2013-06-05 06:30:00,
2013-06-05 02:34:00,50.0,45.7,30.12,South,184,0.0,0.0,85,0.00,,CLR,0.00,VWS V14.00,2013-06-05 06:34:00,
2013-06-05 02:39:00,49.7,45.4,30.12,South,184,0.0,0.0,85,0.00,,CLR,0.00,VWS V14.00,2013-06-05 06:39:00,
2013-06-05 02:44:00,49.3,45.0,30.12,South,184,0.0,0.0,85,0.00,,CLR,0.00,VWS V14.00,2013-06-05 06:44:00,
2013-06-05 02:49:00,49.0,45.0,30.12,South,184,0.0,0.0,86,0.00,,CLR,0.00,VWS V14.00,2013-06-05 06:49:00,
2013-06-05 02:54:00,48.8,45.4,30.12,South,184,0.0,0.0,88,0.00,,CLR,0.00,VWS V14.00,2013-06-05 06:54:00,
2013-06-05 03:00:00,48.7,44.7,30.12,South,185,0.0,0.0,86,0.00,,CLR,0.00,VWS V14.00,2013-06-05 07:00:00,
2013-06-05 03:05:00,48.5,44.5,30.12,South,184,0.0,0.0,86,0.00,,CLR,0.00,VWS V14.00,2013-06-05 07:05:00,
2013-06-05 03:10:00,48.5,43.9,30.12,South,184,0.0,0.0,84,0.00,,CLR,0.00,VWS V14.00,2013-06-05 07:10:00,
2013-06-05 03:15:00,48.5,44.8,30.12,South,184,0.0,0.0,87,0.00,,CLR,0.00,VWS V14.00,2013-06-05 07:15:00,
2013-06-05 03:20:00,48.3,44.6,30.11,South,184,0.0,0.0,87,0.00,,CLR,0.00,VWS V14.00,2013-06-05 07:20:00,
2013-06-05 03:25:00,48.0,44.3,30.11,South,184,0.0,0.0,87,0.00,,CLR,0.00,VWS V14.00,2013-06-05 07:25:00,
2013-06-05 03:30:00,48.1,45.0,30.12,South,185,0.0,0.0,89,0.00,,CLR,0.00,VWS V14.00,2013-06-05 07:30:00,
2013-06-05 03:36:00,48.1,45.0,30.12,South,184,0.0,0.0,89,0.00,,CLR,0.00,VWS V14.00,2013-06-05 07:36:00,
2013-06-05 03:41:00,48.1,44.7,30.12,South,185,0.0,0.0,88,0.00,,CLR,0.00,VWS V14.00,2013-06-05 07:41:00,
2013-06-05 03:46:00,48.0,44.9,30.12,South,184,0.0,0.0,89,0.00,,CLR,0.00,VWS V14.00,2013-06-05 07:46:00,
2013-06-05 03:51:00,47.8,45.0,30.12,South,184,0.0,0.0,90,0.00,,CLR,0.00,VWS V14.00,2013-06-05 07:51:00,
2013-06-05 03:56:00,47.5,44.7,30.12,South,184,0.0,0.0,90,0.00,,CLR,0.00,VWS V14.00,2013-06-05 07:56:00,
2013-06-05 04:00:00,47.4,44.6,30.12,South,185,0.0,0.0,90,0.00,,OVC009,0.00,VWS V14.00,2013-06-05 08:00:00,
2013-06-05 04:02:00,47.2,44.4,30.12,South,184,0.0,0.0,90,0.00,,CLR,0.00,VWS V14.00,2013-06-05 08:02:00,
2013-06-05 04:07:00,47.1,44.3,30.12,South,184,0.0,0.0,90,0.00,,CLR,0.00,VWS V14.00,2013-06-05 08:07:00,
2013-06-05 04:12:00,47.0,44.5,30.13,South,184,0.0,0.0,91,0.00,,CLR,0.00,VWS V14.00,2013-06-05 08:12:00,
2013-06-05 04:17:00,47.0,44.5,30.13,South,185,0.0,0.0,91,0.00,,CLR,0.00,VWS V14.00,2013-06-05 08:17:00,
2013-06-05 04:22:00,47.0,44.5,30.13,South,184,0.0,0.0,91,0.00,,CLR,0.00,VWS V14.00,2013-06-05 08:22:00,
2013-06-05 04:27:00,46.8,44.3,30.13,South,184,0.0,0.0,91,0.00,,CLR,0.00,VWS V14.00,2013-06-05 08:27:00,
2013-06-05 04:30:00,46.7,44.2,30.13,South,184,0.0,0.0,91,0.00,,OVC009,0.00,VWS V14.00,2013-06-05 08:30:00,
2013-06-05 04:32:00,46.7,44.2,30.13,South,185,0.0,0.0,91,0.00,,CLR,0.00,VWS V14.00,2013-06-05 08:32:00,
2013-06-05 04:37:00,46.5,44.0,30.14,South,185,0.0,0.0,91,0.00,,CLR,0.00,VWS V14.00,2013-06-05 08:37:00,
2013-06-05 04:42:00,46.2,43.7,30.14,South,184,0.0,0.0,91,0.00,,CLR,0.00,VWS V14.00,2013-06-05 08:42:00,
2013-06-05 04:47:00,46.0,43.8,30.14,South,185,0.0,0.0,92,0.00,,CLR,0.00,VWS V14.00,2013-06-05 08:47:00,
2013-06-05 04:53:00,45.9,43.7,30.14,South,184,0.0,0.0,92,0.00,,CLR,0.00,VWS V14.00,2013-06-05 08:53:00,
2013-06-05 04:58:00,45.7,43.5,30.14,South,184,0.0,0.0,92,0.00,,CLR,0.00,VWS V14.00,2013-06-05 08:58:00,
2013-06-05 05:00:00,45.6,43.4,30.14,South,185,0.0,0.0,92,0.00,,OVC009,0.00,VWS V14.00,2013-06-05 09:00:00,
2013-06-05 05:03:00,45.4,43.2,30.14,South,184,0.0,0.0,92,0.00,,CLR,0.00,VWS V14.00,2013-06-05 09:03:00,
2013-06-05 05:08:00,45.3,43.4,30.15,South,184,0.0,0.0,93,0.00,,CLR,0.00,VWS V14.00,2013-06-05 09:08:00,
2013-06-05 05:13:00,45.5,43.6,30.15,South,184,0.0,0.0,93,0.00,,CLR,0.00,VWS V14.00,2013-06-05 09:13:00,
2013-06-05 05:18:00,45.4,43.2,30.15,South,185,0.0,0.0,92,0.00,,CLR,0.00,VWS V14.00,2013-06-05 09:18:00,
2013-06-05 05:23:00,45.2,43.0,30.15,South,184,0.0,0.0,92,0.00,,CLR,0.00,VWS V14.00,2013-06-05 09:23:00,
2013-06-05 05:28:00,45.3,43.1,30.15,South,185,0.0,0.0,92,0.00,,CLR,0.00,VWS V14.00,2013-06-05 09:28:00,
2013-06-05 05:30:00,45.3,43.1,30.15,South,184,0.0,0.0,92,0.00,,OVC009,0.00,VWS V14.00,2013-06-05 09:30:00,
2013-06-05 05:33:00,45.4,43.2,30.16,South,184,0.0,0.0,92,0.00,,CLR,0.00,VWS V14.00,2013-06-05 09:33:00,
2013-06-05 05:39:00,45.3,43.1,30.16,South,185,0.0,0.0,92,0.00,,CLR,0.00,VWS V14.00,2013-06-05 09:39:00,
2013-06-05 05:44:00,45.1,42.9,30.16,South,184,0.0,0.0,92,0.00,,CLR,0.00,VWS V14.00,2013-06-05 09:44:00,
2013-06-05 05:49:00,45.1,42.9,30.16,South,184,0.0,0.0,92,0.00,,CLR,0.00,VWS V14.00,2013-06-05 09:49:00,
2013-06-05 05:54:00,45.2,43.0,30.16,South,185,0.0,0.0,92,0.00,,CLR,0.00,VWS V14.00,2013-06-05 09:54:00,
2013-06-05 05:59:00,45.3,43.4,30.16,South,184,0.0,0.0,93,0.00,,CLR,0.00,VWS V14.00,2013-06-05 09:59:00,
2013-06-05 06:00:00,45.3,43.4,30.16,South,184,0.0,0.0,93,0.00,,OVC009,0.00,VWS V14.00,2013-06-05 10:00:00,
2013-06-05 06:04:00,45.5,43.6,30.17,South,185,0.0,0.0,93,0.00,,CLR,0.00,VWS V14.00,2013-06-05 10:04:00,
2013-06-05 06:09:00,45.4,43.2,30.17,South,184,0.0,0.0,92,0.00,,CLR,0.00,VWS V14.00,2013-06-05 10:09:00,
2013-06-05 06:14:00,45.3,43.1,30.17,South,184,0.0,0.0,92,0.00,,CLR,0.00,VWS V14.00,2013-06-05 10:14:00,
2013-06-05 06:20:00,45.4,43.5,30.17,South,184,0.0,0.0,93,0.00,,CLR,0.00,VWS V14.00,2013-06-05 10:20:00,
2013-06-05 06:25:00,45.6,43.7,30.18,South,185,0.0,0.0,93,0.00,,CLR,0.00,VWS V14.00,2013-06-05 10:25:00,
2013-06-05 06:30:00,46.1,44.2,30.18,South,184,0.0,0.0,93,0.00,,CLR,0.00,VWS V14.00,2013-06-05 10:30:00,
2013-06-05 06:35:00,46.8,44.9,30.18,South,184,0.0,0.0,93,0.00,,CLR,0.00,VWS V14.00,2013-06-05 10:35:00,
2013-06-05 06:40:00,48.3,46.7,30.18,South,184,0.0,0.0,94,0.00,,CLR,0.00,VWS V14.00,2013-06-05 10:40:00,
2013-06-05 06:45:00,50.6,48.9,30.19,South,184,0.0,0.0,94,0.00,,CLR,0.00,VWS V14.00,2013-06-05 10:45:00,
2013-06-05 06:50:00,52.2,48.8,30.19,South,184,0.0,0.0,88,0.00,,CLR,0.00,VWS V14.00,2013-06-05 10:50:00,
2013-06-05 06:55:00,53.4,48.7,30.19,South,185,0.0,0.0,84,0.00,,CLR,0.00,VWS V14.00,2013-06-05 10:55:00,
2013-06-05 07:00:00,54.4,48.7,30.19,South,184,0.0,0.0,81,0.00,,OVC009,0.00,VWS V14.00,2013-06-05 11:00:00,
2013-06-05 07:01:00,54.7,49.0,30.19,South,184,0.0,0.0,81,0.00,,CLR,0.00,VWS V14.00,2013-06-05 11:01:00,
2013-06-05 07:06:00,56.6,50.5,30.19,South,184,0.0,0.0,80,0.00,,CLR,0.00,VWS V14.00,2013-06-05 11:06:00,
2013-06-05 07:11:00,58.2,51.0,30.19,South,184,0.0,0.0,77,0.00,,CLR,0.00,VWS V14.00,2013-06-05 11:11:00,
2013-06-05 07:16:00,60.4,51.7,30.20,South,184,0.0,0.0,73,0.00,,CLR,0.00,VWS V14.00,2013-06-05 11:16:00,
2013-06-05 07:21:00,60.8,52.1,30.20,South,184,0.0,0.0,73,0.00,,CLR,0.00,VWS V14.00,2013-06-05 11:21:00,
2013-06-05 07:27:00,60.2,50.8,30.20,South,183,0.0,0.0,71,0.00,,CLR,0.00,VWS V14.00,2013-06-05 11:27:00,
2013-06-05 07:30:00,60.1,50.7,30.20,South,183,0.0,0.0,71,0.00,,OVC009,0.00,VWS V14.00,2013-06-05 11:30:00,
2013-06-05 07:32:00,60.1,50.3,30.20,South,183,0.0,0.0,70,0.00,,CLR,0.00,VWS V14.00,2013-06-05 11:32:00,
2013-06-05 07:37:00,60.8,50.6,30.20,South,183,0.0,0.0,69,0.00,,CLR,0.00,VWS V14.00,2013-06-05 11:37:00,
2013-06-05 07:42:00,61.3,50.3,30.20,South,183,0.0,0.0,67,0.00,,CLR,0.00,VWS V14.00,2013-06-05 11:42:00,
2013-06-05 07:47:00,61.6,51.0,30.20,South,183,0.0,0.0,68,0.00,,CLR,0.00,VWS V14.00,2013-06-05 11:47:00,
2013-06-05 07:52:00,61.9,50.4,30.20,NNE,15,0.0,2.0,66,0.00,,CLR,0.00,VWS V14.00,2013-06-05 11:52:00,
2013-06-05 07:57:00,62.4,48.8,30.20,North,5,0.0,2.0,61,0.00,,CLR,0.00,VWS V14.00,2013-06-05 11:57:00,
2013-06-05 08:00:00,62.8,50.0,30.19,North,4,0.0,2.0,63,0.00,,OVC009,0.00,VWS V14.00,2013-06-05 12:00:00,
2013-06-05 08:02:00,63.0,48.5,30.20,North,8,4.0,4.0,59,0.00,,CLR,0.00,VWS V14.00,2013-06-05 12:02:00,
2013-06-05 08:08:00,62.7,46.8,30.19,NNE,14,0.0,4.0,56,0.00,,CLR,0.00,VWS V14.00,2013-06-05 12:08:00,
2013-06-05 08:13:00,63.4,47.5,30.20,ESE,103,1.0,4.0,56,0.00,,CLR,0.00,VWS V14.00,2013-06-05 12:13:00,
2013-06-05 08:18:00,63.9,47.4,30.20,ENE,63,1.0,4.0,55,0.00,,CLR,0.00,VWS V14.00,2013-06-05 12:18:00,
2013-06-05 08:23:00,64.4,46.9,30.20,NNE,15,2.0,5.0,53,0.00,,CLR,0.00,VWS V14.00,2013-06-05 12:23:00,
2013-06-05 08:28:00,64.7,45.7,30.20,NNW,337,3.0,5.0,50,0.00,,CLR,0.00,VWS V14.00,2013-06-05 12:28:00,
2013-06-05 08:30:00,64.6,46.6,30.20,NE,49,2.0,6.0,52,0.00,,OVC009,0.00,VWS V14.00,2013-06-05 12:30:00,
2013-06-05 08:33:00,64.1,45.1,30.20,NNE,27,3.0,5.0,50,0.00,,CLR,0.00,VWS V14.00,2013-06-05 12:33:00,
2013-06-05 08:38:00,64.0,46.0,30.20,East,99,1.0,6.0,52,0.00,,CLR,0.00,VWS V14.00,2013-06-05 12:38:00,
2013-06-05 08:44:00,64.3,47.3,30.20,NE,37,1.0,7.0,54,0.00,,CLR,0.00,VWS V14.00,2013-06-05 12:44:00,
2013-06-05 08:49:00,64.7,46.7,30.20,East,87,1.0,7.0,52,0.00,,CLR,0.00,VWS V14.00,2013-06-05 12:49:00,
2013-06-05 08:54:00,64.9,48.4,30.20,North,349,3.0,7.0,55,0.00,,CLR,0.00,VWS V14.00,2013-06-05 12:54:00,
2013-06-05 08:59:00,64.9,46.4,30.21,NNE,16,2.0,7.0,51,0.00,,CLR,0.00,VWS V14.00,2013-06-05 12:59:00,
2013-06-05 09:00:00,64.9,46.4,30.21,North,350,2.0,7.0,51,0.00,,OVC009,0.00,VWS V14.00,2013-06-05 13:00:00,
2013-06-05 09:04:00,65.6,48.5,30.21,NW,321,3.0,3.0,54,0.00,,CLR,0.00,VWS V14.00,2013-06-05 13:04:00,
2013-06-05 09:09:00,65.5,47.9,30.20,East,100,0.0,5.0,53,0.00,,CLR,0.00,VWS V14.00,2013-06-05 13:09:00,
2013-06-05 09:14:00,65.9,48.3,30.21,South,172,1.0,5.0,53,0.00,,CLR,0.00,VWS V14.00,2013-06-05 13:14:00,
2013-06-05 09:20:00,66.0,48.9,30.21,ENE,60,3.0,5.0,54,0.00,,CLR,0.00,VWS V14.00,2013-06-05 13:20:00,
2013-06-05 09:25:00,66.7,49.5,30.21,NNE,13,2.0,5.0,54,0.00,,CLR,0.00,VWS V14.00,2013-06-05 13:25:00,
2013-06-05 09:30:00,67.7,51.0,30.21,North,360,1.0,1.0,55,0.00,,CLR,0.00,VWS V14.00,2013-06-05 13:30:00,
2013-06-05 09:35:00,68.3,49.0,30.21,NNE,16,3.0,5.0,50,0.00,,CLR,0.00,VWS V14.00,2013-06-05 13:35:00,
2013-06-05 09:40:00,67.3,48.6,30.21,East,97,1.0,5.0,51,0.00,,CLR,0.00,VWS V14.00,2013-06-05 13:40:00,
2013-06-05 09:45:00,67.7,48.4,30.21,East,95,1.0,5.0,50,0.00,,CLR,0.00,VWS V14.00,2013-06-05 13:45:00,
2013-06-05 09:50:00,67.5,47.7,30.21,North,352,1.0,5.0,49,0.00,,CLR,0.00,VWS V14.00,2013-06-05 13:50:00,
2013-06-05 09:56:00,67.8,51.1,30.20,ENE,65,2.0,5.0,55,0.00,,CLR,0.00,VWS V14.00,2013-06-05 13:56:00,
2013-06-05 10:00:00,68.6,50.3,30.20,NW,309,1.0,5.0,52,0.00,,OVC009,0.00,VWS V14.00,2013-06-05 14:00:00,
2013-06-05 10:01:00,68.9,50.6,30.20,NNE,23,1.0,5.0,52,0.00,,CLR,0.00,VWS V14.00,2013-06-05 14:01:00,
2013-06-05 10:06:00,69.7,49.7,30.20,NE,34,0.0,5.0,49,0.00,,CLR,0.00,VWS V14.00,2013-06-05 14:06:00,
2013-06-05 10:12:00,69.7,49.7,30.20,ESE,112,1.0,6.0,49,0.00,,CLR,0.00,VWS V14.00,2013-06-05 14:12:00,
2013-06-05 10:17:00,70.1,49.0,30.20,North,359,1.0,6.0,47,0.00,,CLR,0.00,VWS V14.00,2013-06-05 14:17:00,
2013-06-05 10:22:00,70.5,51.0,30.20,ENE,75,2.0,6.0,50,0.00,,CLR,0.00,VWS V14.00,2013-06-05 14:22:00,
2013-06-05 10:27:00,71.3,51.2,30.20,NNW,329,1.0,6.0,49,0.00,,CLR,0.00,VWS V14.00,2013-06-05 14:27:00,
2013-06-05 10:30:00,71.5,49.1,30.20,NNW,341,2.0,6.0,45,0.00,,OVC009,0.00,VWS V14.00,2013-06-05 14:30:00,
2013-06-05 10:32:00,71.2,52.7,30.20,ESE,110,1.0,8.0,52,0.00,,CLR,0.00,VWS V14.00,2013-06-05 14:32:00,
2013-06-05 10:37:00,71.2,50.0,30.20,East,101,1.0,8.0,47,0.00,,CLR,0.00,VWS V14.00,2013-06-05 14:37:00,
2013-06-05 10:42:00,71.2,51.1,30.20,South,172,4.0,8.0,49,0.00,,CLR,0.00,VWS V14.00,2013-06-05 14:42:00,
2013-06-05 10:48:00,71.2,48.8,30.19,North,9,2.0,8.0,45,0.00,,CLR,0.00,VWS V14.00,2013-06-05 14:48:00,
2013-06-05 10:53:00,72.0,51.8,30.19,East,93,1.0,8.0,49,0.00,,CLR,0.00,VWS V14.00,2013-06-05 14:53:00,
2013-06-05 10:58:00,71.6,47.9,30.19,SE,136,2.0,8.0,43,0.00,,CLR,0.00,VWS V14.00,2013-06-05 14:58:00,
2013-06-05 11:00:00,71.5,49.1,30.19,SW,236,1.0,8.0,45,0.00,,OVC009,0.00,VWS V14.00,2013-06-05 15:00:00,
2013-06-05 11:03:00,71.2,50.0,30.19,WSW,237,1.0,4.0,47,0.00,,CLR,0.00,VWS V14.00,2013-06-05 15:03:00,
2013-06-05 11:08:00,71.5,49.1,30.19,East,84,2.0,5.0,45,0.00,,CLR,0.00,VWS V14.00,2013-06-05 15:08:00,
2013-06-05 11:13:00,70.9,49.7,30.18,NE,52,3.0,5.0,47,0.00,,CLR,0.00,VWS V14.00,2013-06-05 15:13:00,
2013-06-05 11:18:00,72.0,51.8,30.19,ESE,118,0.0,5.0,49,0.00,,CLR,0.00,VWS V14.00,2013-06-05 15:18:00,
2013-06-05 11:23:00,73.0,51.6,30.19,East,84,3.0,5.0,47,0.00,,CLR,0.00,VWS V14.00,2013-06-05 15:23:00,
2013-06-05 11:29:00,72.8,50.2,30.18,ENE,63,4.0,5.0,45,0.00,,CLR,0.00,VWS V14.00,2013-06-05 15:29:00,
2013-06-05 11:30:00,72.8,49.6,30.18,NE,47,2.0,5.0,44,0.00,,OVC009,0.00,VWS V14.00,2013-06-05 15:30:00,
2013-06-05 11:34:00,72.3,48.6,30.18,NE,56,3.0,4.0,43,0.00,,CLR,0.00,VWS V14.00,2013-06-05 15:34:00,
2013-06-05 11:39:00,72.9,49.7,30.18,NNW,344,1.0,4.0,44,0.00,,CLR,0.00,VWS V14.00,2013-06-05 15:39:00,
2013-06-05 11:44:00,74.2,49.0,30.18,WSW,249,0.0,4.0,41,0.00,,CLR,0.00,VWS V14.00,2013-06-05 15:44:00,
2013-06-05 11:49:00,74.3,53.4,30.18,ESE,111,2.0,4.0,48,0.00,,CLR,0.00,VWS V14.00,2013-06-05 15:49:00,
2013-06-05 11:54:00,75.0,50.4,30.18,East,81,1.0,4.0,42,0.00,,CLR,0.00,VWS V14.00,2013-06-05 15:54:00,
2013-06-05 11:59:00,75.1,50.5,30.17,NE,56,2.0,2.0,42,0.00,,CLR,0.00,VWS V14.00,2013-06-05 15:59:00,
2013-06-05 12:00:00,75.1,50.5,30.17,ENE,70,2.0,6.0,42,0.00,,OVC009,0.00,VWS V14.00,2013-06-05 16:00:00,
2013-06-05 12:05:00,75.0,52.8,30.17,NE,36,2.0,3.0,46,0.00,,CLR,0.00,VWS V14.00,2013-06-05 16:05:00,
2013-06-05 12:10:00,75.2,49.9,30.17,North,6,1.0,3.0,41,0.00,,CLR,0.00,VWS V14.00,2013-06-05 16:10:00,
2013-06-05 12:15:00,74.2,48.3,30.17,West,274,0.0,4.0,40,0.00,,CLR,0.00,VWS V14.00,2013-06-05 16:15:00,
2013-06-05 12:20:00,73.6,49.1,30.17,East,101,1.0,4.0,42,0.00,,CLR,0.00,VWS V14.00,2013-06-05 16:20:00,
2013-06-05 12:25:00,75.0,54.6,30.17,East,91,1.0,4.0,49,0.00,,CLR,0.00,VWS V14.00,2013-06-05 16:25:00,
2013-06-05 12:30:00,74.8,48.9,30.17,SE,125,1.0,2.0,40,0.00,,CLR,0.00,VWS V14.00,2013-06-05 16:30:00,
2013-06-05 12:35:00,74.5,50.6,30.16,SW,225,1.0,4.0,43,0.00,,CLR,0.00,VWS V14.00,2013-06-05 16:35:00,
2013-06-05 12:40:00,76.2,52.7,30.16,SW,218,2.0,4.0,44,0.00,,CLR,0.00,VWS V14.00,2013-06-05 16:40:00,
2013-06-05 12:45:00,76.0,50.0,30.16,SSE,148,4.0,4.0,40,0.00,,CLR,0.00,VWS V14.00,2013-06-05 16:45:00,
2013-06-05 12:50:00,76.0,53.8,30.16,SE,127,2.0,5.0,46,0.00,,CLR,0.00,VWS V14.00,2013-06-05 16:50:00,
2013-06-05 12:55:00,75.8,49.8,30.15,NNW,341,5.0,5.0,40,0.00,,CLR,0.00,VWS V14.00,2013-06-05 16:55:00,
2013-06-05 13:00:00,75.5,48.8,30.15,NNW,328,2.0,2.0,39,0.00,,CLR,0.00,VWS V14.00,2013-06-05 17:00:00,
2013-06-05 13:06:00,75.1,50.5,30.14,West,267,2.0,3.0,42,0.00,,CLR,0.00,VWS V14.00,2013-06-05 17:06:00,
2013-06-05 13:11:00,75.4,50.7,30.14,NE,47,4.0,4.0,42,0.00,,CLR,0.00,VWS V14.00,2013-06-05 17:11:00,
2013-06-05 13:16:00,76.0,50.6,30.14,East,90,1.0,4.0,41,0.00,,CLR,0.00,VWS V14.00,2013-06-05 17:16:00,
2013-06-05 13:22:00,76.6,50.5,30.14,NW,305,2.0,4.0,40,0.00,,CLR,0.00,VWS V14.00,2013-06-05 17:22:00,
2013-06-05 13:27:00,77.0,53.4,30.14,SE,146,4.0,4.0,44,0.00,,CLR,0.00,VWS V14.00,2013-06-05 17:27:00,
2013-06-05 13:30:00,77.0,51.5,30.14,North,352,2.0,5.0,41,0.00,,OVC009,0.00,VWS V14.00,2013-06-05 17:30:00,
2013-06-05 13:32:00,77.4,52.5,30.14,NE,53,2.0,3.0,42,0.00,,CLR,0.00,VWS V14.00,2013-06-05 17:32:00,
2013-06-05 13:37:00,78.1,55.7,30.14,SSE,159,3.0,4.0,46,0.00,,CLR,0.00,VWS V14.00,2013-06-05 17:37:00,
2013-06-05 13:42:00,77.2,54.2,30.14,NNE,18,2.0,5.0,45,0.00,,CLR,0.00,VWS V14.00,2013-06-05 17:42:00,
2013-06-05 13:47:00,76.8,51.3,30.14,NNE,20,4.0,5.0,41,0.00,,CLR,0.00,VWS V14.00,2013-06-05 17:47:00,
2013-06-05 13:53:00,76.8,53.3,30.14,ENE,71,4.0,6.0,44,0.00,,CLR,0.00,VWS V14.00,2013-06-05 17:53:00,
2013-06-05 13:58:00,77.5,55.7,30.14,North,359,3.0,6.0,47,0.00,,CLR,0.00,VWS V14.00,2013-06-05 17:58:00,
2013-06-05 14:00:00,77.5,55.1,30.14,North,352,2.0,6.0,46,0.00,,OVC009,0.00,VWS V14.00,2013-06-05 18:00:00,
2013-06-05 14:03:00,77.2,54.8,30.14,NW,325,3.0,6.0,46,0.00,,CLR,0.00,VWS V14.00,2013-06-05 18:03:00,
2013-06-05 14:08:00,76.7,52.5,30.13,ENE,75,2.0,6.0,43,0.00,,CLR,0.00,VWS V14.00,2013-06-05 18:08:00,
2013-06-05 14:13:00,76.6,53.7,30.13,ENE,65,2.0,6.0,45,0.00,,CLR,0.00,VWS V14.00,2013-06-05 18:13:00,
2013-06-05 14:18:00,76.6,53.7,30.13,ENE,75,1.0,6.0,45,0.00,,CLR,0.00,VWS V14.00,2013-06-05 18:18:00,
2013-06-05 14:24:00,77.0,52.8,30.13,NNW,346,1.0,6.0,43,0.00,,CLR,0.00,VWS V14.00,2013-06-05 18:24:00,
2013-06-05 14:29:00,76.8,52.6,30.13,North,8,2.0,6.0,43,0.00,,CLR,0.00,VWS V14.00,2013-06-05 18:29:00,
2013-06-05 14:30:00,76.7,53.2,30.13,East,100,3.0,6.0,44,0.00,,OVC009,0.00,VWS V14.00,2013-06-05 18:30:00,
2013-06-05 14:34:00,76.6,53.1,30.13,NNE,27,3.0,8.0,44,0.00,,CLR,0.00,VWS V14.00,2013-06-05 18:34:00,
2013-06-05 14:39:00,76.9,54.6,30.13,NE,35,2.0,8.0,46,0.00,,CLR,0.00,VWS V14.00,2013-06-05 18:39:00,
2013-06-05 14:44:00,76.8,52.6,30.12,ESE,108,1.0,8.0,43,0.00,,CLR,0.00,VWS V14.00,2013-06-05 18:44:00,
2013-06-05 14:49:00,77.1,52.9,30.12,North,354,2.0,8.0,43,0.00,,CLR,0.00,VWS V14.00,2013-06-05 18:49:00,
2013-06-05 14:54:00,77.2,53.6,30.12,SSE,149,4.0,8.0,44,0.00,,CLR,0.00,VWS V14.00,2013-06-05 18:54:00,
2013-06-05 14:59:00,76.5,53.0,30.12,SSE,151,3.0,8.0,44,0.00,,CLR,0.00,VWS V14.00,2013-06-05 18:59:00,
2013-06-05 15:00:00,76.5,53.0,30.12,SSE,162,2.0,8.0,44,0.00,,OVC009,0.00,VWS V14.00,2013-06-05 19:00:00,
2013-06-05 15:04:00,76.6,52.5,30.12,SE,130,7.0,8.0,43,0.00,,CLR,0.00,VWS V14.00,2013-06-05 19:04:00,
2013-06-05 15:09:00,77.1,53.5,30.12,SE,141,5.0,8.0,44,0.00,,CLR,0.00,VWS V14.00,2013-06-05 19:09:00,
2013-06-05 15:14:00,76.7,51.9,30.12,East,84,1.0,8.0,42,0.00,,CLR,0.00,VWS V14.00,2013-06-05 19:14:00,
2013-06-05 15:19:00,76.6,55.5,30.11,SSE,153,4.0,8.0,48,0.00,,CLR,0.00,VWS V14.00,2013-06-05 19:19:00,
2013-06-05 15:25:00,75.9,53.1,30.11,SW,226,2.0,8.0,45,0.00,,CLR,0.00,VWS V14.00,2013-06-05 19:25:00,
2013-06-05 15:30:00,76.5,53.6,30.11,East,100,0.0,1.0,45,0.00,,CLR,0.00,VWS V14.00,2013-06-05 19:30:00,
2013-06-05 15:35:00,76.6,52.5,30.11,ENE,62,2.0,5.0,43,0.00,,CLR,0.00,VWS V14.00,2013-06-05 19:35:00,
2013-06-05 15:40:00,76.8,52.6,30.11,ESE,108,2.0,5.0,43,0.00,,CLR,0.00,VWS V14.00,2013-06-05 19:40:00,
2013-06-05 15:45:00,77.6,53.4,30.12,NNE,31,3.0,6.0,43,0.00,,CLR,0.00,VWS V14.00,2013-06-05 19:45:00,
2013-06-05 15:51:00,77.6,54.6,30.12,NE,49,2.0,6.0,45,0.00,,CLR,0.00,VWS V14.00,2013-06-05 19:51:00,
2013-06-05 15:56:00,77.4,52.5,30.12,ENE,63,2.0,6.0,42,0.00,,CLR,0.00,VWS V14.00,2013-06-05 19:56:00,
2013-06-05 16:00:00,77.1,52.3,30.12,ESE,108,2.0,6.0,42,0.00,,OVC009,0.00,VWS V14.00,2013-06-05 20:00:00,
2013-06-05 16:01:00,77.0,52.8,30.12,ESE,120,1.0,3.0,43,0.00,,CLR,0.00,VWS V14.00,2013-06-05 20:01:00,
2013-06-05 16:06:00,77.0,54.1,30.11,ESE,117,0.0,4.0,45,0.00,,CLR,0.00,VWS V14.00,2013-06-05 20:06:00,
2013-06-05 16:11:00,77.5,53.3,30.11,ESE,105,3.0,5.0,43,0.00,,CLR,0.00,VWS V14.00,2013-06-05 20:11:00,
2013-06-05 16:16:00,77.0,55.2,30.11,ENE,70,2.0,6.0,47,0.00,,CLR,0.00,VWS V14.00,2013-06-05 20:16:00,
2013-06-05 16:21:00,77.9,52.3,30.11,NNE,17,1.0,6.0,41,0.00,,CLR,0.00,VWS V14.00,2013-06-05 20:21:00,
2013-06-05 16:26:00,77.3,53.1,30.12,ENE,70,1.0,6.0,43,0.00,,CLR,0.00,VWS V14.00,2013-06-05 20:26:00,
2013-06-05 16:30:00,77.3,53.1,30.12,North,11,2.0,6.0,43,0.00,,OVC009,0.00,VWS V14.00,2013-06-05 20:30:00,
2013-06-05 16:31:00,77.0,52.8,30.12,WNW,302,1.0,4.0,43,0.00,,CLR,0.00,VWS V14.00,2013-06-05 20:31:00,
2013-06-05 16:37:00,76.6,56.0,30.12,ENE,60,4.0,6.0,49,0.00,,CLR,0.00,VWS V14.00,2013-06-05 20:37:00,
2013-06-05 16:42:00,76.4,52.9,30.11,NNE,27,1.0,6.0,44,0.00,,CLR,0.00,VWS V14.00,2013-06-05 20:42:00,
2013-06-05 16:47:00,77.1,54.8,30.12,ESE,121,1.0,6.0,46,0.00,,CLR,0.00,VWS V14.00,2013-06-05 20:47:00,
2013-06-05 16:52:00,77.5,53.3,30.12,NNE,24,1.0,6.0,43,0.00,,CLR,0.00,VWS V14.00,2013-06-05 20:52:00,
2013-06-05 16:57:00,76.9,52.7,30.12,SSW,212,1.0,6.0,43,0.00,,CLR,0.00,VWS V14.00,2013-06-05 20:57:00,
2013-06-05 17:00:00,76.8,53.3,30.12,SSE,151,1.0,6.0,44,0.00,,OVC009,0.00,VWS V14.00,2013-06-05 21:00:00,
2013-06-05 17:02:00,76.4,52.3,30.12,ENE,58,3.0,5.0,43,0.00,,CLR,0.00,VWS V14.00,2013-06-05 21:02:00,
2013-06-05 17:08:00,76.3,52.2,30.12,SE,145,0.0,5.0,43,0.00,,CLR,0.00,VWS V14.00,2013-06-05 21:08:00,
2013-06-05 17:13:00,76.6,52.5,30.11,SW,218,2.0,5.0,43,0.00,,CLR,0.00,VWS V14.00,2013-06-05 21:13:00,
2013-06-05 17:18:00,76.2,52.1,30.11,ENE,58,3.0,7.0,43,0.00,,CLR,0.00,VWS V14.00,2013-06-05 21:18:00,
2013-06-05 17:23:00,75.9,51.8,30.11,East,99,3.0,7.0,43,0.00,,CLR,0.00,VWS V14.00,2013-06-05 21:23:00,
2013-06-05 17:28:00,75.6,51.5,30.11,NE,51,3.0,7.0,43,0.00,,CLR,0.00,VWS V14.00,2013-06-05 21:28:00,
2013-06-05 17:30:00,75.4,52.0,30.11,East,98,2.0,7.0,44,0.00,,OVC009,0.00,VWS V14.00,2013-06-05 21:30:00,
2013-06-05 17:33:00,75.3,52.5,30.11,NE,47,5.0,5.0,45,0.00,,CLR,0.00,VWS V14.00,2013-06-05 21:33:00,
2013-06-05 17:38:00,75.2,51.8,30.12,ENE,69,0.0,6.0,44,0.00,,CLR,0.00,VWS V14.00,2013-06-05 21:38:00,
2013-06-05 17:43:00,75.3,52.5,30.12,NNE,15,0.0,6.0,45,0.00,,CLR,0.00,VWS V14.00,2013-06-05 21:43:00,
2013-06-05 17:48:00,75.4,53.2,30.12,NNE,26,1.0,6.0,46,0.00,,CLR,0.00,VWS V14.00,2013-06-05 21:48:00,
2013-06-05 17:53:00,75.2,53.0,30.12,East,80,2.0,6.0,46,0.00,,CLR,0.00,VWS V14.00,2013-06-05 21:53:00,
2013-06-05 17:59:00,75.3,51.9,30.12,North,350,1.0,6.0,44,0.00,,CLR,0.00,VWS V14.00,2013-06-05 21:59:00,
2013-06-05 18:00:00,75.3,51.9,30.12,North,360,1.0,6.0,44,0.00,,OVC009,0.00,VWS V14.00,2013-06-05 22:00:00,
2013-06-05 18:04:00,74.9,52.8,30.12,East,89,3.0,5.0,46,0.00,,CLR,0.00,VWS V14.00,2013-06-05 22:04:00,
2013-06-05 18:09:00,74.3,51.6,30.12,NNW,327,0.0,6.0,45,0.00,,CLR,0.00,VWS V14.00,2013-06-05 22:09:00,
2013-06-05 18:14:00,74.3,51.6,30.11,NNE,18,3.0,6.0,45,0.00,,CLR,0.00,VWS V14.00,2013-06-05 22:14:00,
2013-06-05 18:19:00,73.9,51.2,30.11,ENE,62,1.0,6.0,45,0.00,,CLR,0.00,VWS V14.00,2013-06-05 22:19:00,
2013-06-05 18:24:00,73.4,52.5,30.11,SSE,148,0.0,6.0,48,0.00,,CLR,0.00,VWS V14.00,2013-06-05 22:24:00,
2013-06-05 18:30:00,73.4,51.4,30.11,East,91,1.0,3.0,46,0.00,,CLR,0.00,VWS V14.00,2013-06-05 22:30:00,
2013-06-05 18:35:00,73.0,51.6,30.10,NE,47,4.0,4.0,47,0.00,,CLR,0.00,VWS V14.00,2013-06-05 22:35:00,
2013-06-05 18:40:00,72.5,51.7,30.11,ESE,117,1.0,4.0,48,0.00,,CLR,0.00,VWS V14.00,2013-06-05 22:40:00,
2013-06-05 18:45:00,72.0,52.4,30.10,East,89,0.0,5.0,50,0.00,,CLR,0.00,VWS V14.00,2013-06-05 22:45:00,
2013-06-05 18:50:00,71.6,52.0,30.10,NNE,23,1.0,5.0,50,0.00,,CLR,0.00,VWS V14.00,2013-06-05 22:50:00,
2013-06-05 18:55:00,71.4,52.9,30.10,ENE,67,0.0,5.0,52,0.00,,CLR,0.00,VWS V14.00,2013-06-05 22:55:00,
2013-06-05 19:00:00,71.1,52.1,30.10,ENE,68,0.0,1.0,51,0.00,,CLR,0.00,VWS V14.00,2013-06-05 23:00:00,
2013-06-05 19:05:00,70.9,52.4,30.10,North,359,2.0,3.0,52,0.00,,CLR,0.00,VWS V14.00,2013-06-05 23:05:00,
2013-06-05 19:11:00,70.7,52.8,30.11,SE,125,0.0,3.0,53,0.00,,CLR,0.00,VWS V14.00,2013-06-05 23:11:00,
2013-06-05 19:16:00,70.4,52.5,30.11,South,183,1.0,5.0,53,0.00,,CLR,0.00,VWS V14.00,2013-06-05 23:16:00,
2013-06-05 19:21:00,70.1,52.2,30.11,SE,134,0.0,5.0,53,0.00,,CLR,0.00,VWS V14.00,2013-06-05 23:21:00,
2013-06-05 19:26:00,69.9,53.0,30.11,SSE,148,1.0,5.0,55,0.00,,CLR,0.00,VWS V14.00,2013-06-05 23:26:00,
2013-06-05 19:30:00,69.7,52.8,30.11,SSE,162,2.0,5.0,55,0.00,,OVC009,0.00,VWS V14.00,2013-06-05 23:30:00,
2013-06-05 19:32:00,69.6,52.2,30.11,NE,40,2.0,4.0,54,0.00,,CLR,0.00,VWS V14.00,2013-06-05 23:32:00,
2013-06-05 19:37:00,69.3,52.0,30.10,ESE,115,0.0,5.0,54,0.00,,CLR,0.00,VWS V14.00,2013-06-05 23:37:00,
2013-06-05 19:42:00,69.0,51.2,30.10,SE,143,0.0,5.0,53,0.00,,CLR,0.00,VWS V14.00,2013-06-05 23:42:00,
2013-06-05 19:47:00,68.7,51.4,30.11,NE,46,2.0,5.0,54,0.00,,CLR,0.00,VWS V14.00,2013-06-05 23:47:00,
2013-06-05 19:52:00,68.4,51.6,30.11,East,80,1.0,5.0,55,0.00,,CLR,0.00,VWS V14.00,2013-06-05 23:52:00,
2013-06-05 19:57:00,68.1,51.8,30.11,SSE,148,1.0,5.0,56,0.00,,CLR,0.00,VWS V14.00,2013-06-05 23:57:00,
2013-06-05 20:00:00,67.9,51.2,30.11,ESE,121,1.0,5.0,55,0.00,,OVC009,0.00,VWS V14.00,2013-06-06 00:00:00,
2013-06-05 20:02:00,67.7,51.5,30.11,SE,141,1.0,2.0,56,0.00,,CLR,0.00,VWS V14.00,2013-06-06 00:02:00,
2013-06-05 20:08:00,67.3,52.0,30.11,SE,143,1.0,2.0,58,0.00,,CLR,0.00,VWS V14.00,2013-06-06 00:08:00,
2013-06-05 20:13:00,66.9,51.7,30.12,SE,129,0.0,3.0,58,0.00,,CLR,0.00,VWS V14.00,2013-06-06 00:13:00,
2013-06-05 20:18:00,66.6,51.4,30.11,ESE,117,0.0,4.0,58,0.00,,CLR,0.00,VWS V14.00,2013-06-06 00:18:00,
2013-06-05 20:23:00,66.3,51.6,30.11,SE,138,1.0,4.0,59,0.00,,CLR,0.00,VWS V14.00,2013-06-06 00:23:00,
2013-06-05 20:28:00,66.0,51.7,30.11,SE,131,0.0,4.0,60,0.00,,CLR,0.00,VWS V14.00,2013-06-06 00:28:00,
2013-06-05 20:30:00,65.9,52.1,30.11,SE,131,0.0,4.0,61,0.00,,OVC009,0.00,VWS V14.00,2013-06-06 00:30:00,
2013-06-05 20:33:00,65.5,51.7,30.11,ESE,118,0.0,1.0,61,0.00,,CLR,0.00,VWS V14.00,2013-06-06 00:33:00,
2013-06-05 20:38:00,65.1,51.8,30.11,ESE,119,0.0,1.0,62,0.00,,CLR,0.00,VWS V14.00,2013-06-06 00:38:00,
2013-06-05 20:43:00,64.5,51.6,30.12,ESE,118,0.0,1.0,63,0.00,,CLR,0.00,VWS V14.00,2013-06-06 00:43:00,
2013-06-05 20:49:00,63.8,51.0,30.12,ESE,118,0.0,1.0,63,0.00,,CLR,0.00,VWS V14.00,2013-06-06 00:49:00,
2013-06-05 20:54:00,63.4,51.0,30.11,ESE,118,0.0,1.0,64,0.00,,CLR,0.00,VWS V14.00,2013-06-06 00:54:00,
2013-06-05 20:59:00,63.2,50.4,30.11,East,101,0.0,2.0,63,0.00,,CLR,0.00,VWS V14.00,2013-06-06 00:59:00,
2013-06-05 21:00:00,63.2,50.4,30.11,East,99,1.0,2.0,63,0.00,,OVC009,0.00,VWS V14.00,2013-06-06 01:00:00,
2013-06-05 21:04:00,63.2,50.8,30.11,East,98,0.0,1.0,64,0.00,,CLR,0.00,VWS V14.00,2013-06-06 01:04:00,
2013-06-05 21:09:00,62.8,50.9,30.12,SSE,163,3.0,3.0,65,0.00,,CLR,0.00,VWS V14.00,2013-06-06 01:09:00,
2013-06-05 21:14:00,62.6,51.1,30.12,SSE,166,0.0,3.0,66,0.00,,CLR,0.00,VWS V14.00,2013-06-06 01:14:00,
2013-06-05 21:19:00,62.4,51.3,30.13,SE,143,0.0,3.0,67,0.00,,CLR,0.00,VWS V14.00,2013-06-06 01:19:00,
2013-06-05 21:24:00,62.0,50.9,30.12,SE,142,0.0,3.0,67,0.00,,CLR,0.00,VWS V14.00,2013-06-06 01:24:00,
2013-06-05 21:29:00,61.9,51.2,30.12,SE,142,0.0,3.0,68,0.00,,CLR,0.00,VWS V14.00,2013-06-06 01:29:00,
2013-06-05 21:30:00,61.9,51.2,30.12,SE,142,0.0,3.0,68,0.00,,OVC009,0.00,VWS V14.00,2013-06-06 01:30:00,
2013-06-05 21:34:00,61.8,51.5,30.12,East,99,0.0,1.0,69,0.00,,CLR,0.00,VWS V14.00,2013-06-06 01:34:00,
2013-06-05 21:39:00,61.6,51.3,30.12,East,98,0.0,1.0,69,0.00,,CLR,0.00,VWS V14.00,2013-06-06 01:39:00,
2013-06-05 21:44:00,61.4,51.5,30.12,East,98,0.0,1.0,70,0.00,,CLR,0.00,VWS V14.00,2013-06-06 01:44:00,
2013-06-05 21:50:00,61.2,51.7,30.12,East,99,1.0,1.0,71,0.00,,CLR,0.00,VWS V14.00,2013-06-06 01:50:00,
2013-06-05 21:55:00,60.7,51.6,30.13,East,98,0.0,1.0,72,0.00,,CLR,0.00,VWS V14.00,2013-06-06 01:55:00,
2013-06-05 22:00:00,60.1,51.4,30.13,East,98,0.0,0.0,73,0.00,,CLR,0.00,VWS V14.00,2013-06-06 02:00:00,
2013-06-05 22:05:00,59.6,51.7,30.13,East,99,0.0,0.0,75,0.00,,CLR,0.00,VWS V14.00,2013-06-06 02:05:00,
2013-06-05 22:10:00,59.0,51.1,30.13,East,98,0.0,0.0,75,0.00,,CLR,0.00,VWS V14.00,2013-06-06 02:10:00,
2013-06-05 22:15:00,58.5,51.7,30.13,East,99,0.0,1.0,78,0.00,,CLR,0.00,VWS V14.00,2013-06-06 02:15:00,
2013-06-05 22:21:00,58.1,51.6,30.13,East,98,0.0,1.0,79,0.00,,CLR,0.00,VWS V14.00,2013-06-06 02:21:00,
2013-06-05 22:26:00,57.9,51.8,30.13,East,98,0.0,1.0,80,0.00,,CLR,0.00,VWS V14.00,2013-06-06 02:26:00,
2013-06-05 22:30:00,57.6,51.8,30.13,East,98,0.0,1.0,81,0.00,,OVC009,0.00,VWS V14.00,2013-06-06 02:30:00,
2013-06-05 22:31:00,57.6,51.8,30.13,East,98,0.0,0.0,81,0.00,,CLR,0.00,VWS V14.00,2013-06-06 02:31:00,
2013-06-05 22:36:00,57.2,51.8,30.13,East,99,0.0,0.0,82,0.00,,CLR,0.00,VWS V14.00,2013-06-06 02:36:00,
2013-06-05 22:41:00,56.8,51.7,30.14,East,98,0.0,0.0,83,0.00,,CLR,0.00,VWS V14.00,2013-06-06 02:41:00,
2013-06-05 22:46:00,56.4,51.3,30.14,East,99,0.0,0.0,83,0.00,,CLR,0.00,VWS V14.00,2013-06-06 02:46:00,
2013-06-05 22:51:00,56.2,51.4,30.14,East,98,0.0,0.0,84,0.00,,CLR,0.00,VWS V14.00,2013-06-06 02:51:00,
2013-06-05 22:56:00,56.1,51.7,30.14,East,99,1.0,1.0,85,0.00,,CLR,0.00,VWS V14.00,2013-06-06 02:56:00,
2013-06-05 23:00:00,56.0,51.6,30.14,East,98,0.0,1.0,85,0.00,,OVC009,0.00,VWS V14.00,2013-06-06 03:00:00,
2013-06-05 23:02:00,56.0,51.6,30.14,East,98,0.0,0.0,85,0.00,,CLR,0.00,VWS V14.00,2013-06-06 03:02:00,
2013-06-05 23:07:00,55.9,51.5,30.13,East,98,0.0,0.0,85,0.00,,CLR,0.00,VWS V14.00,2013-06-06 03:07:00,
2013-06-05 23:12:00,56.0,51.9,30.13,East,99,0.0,0.0,86,0.00,,CLR,0.00,VWS V14.00,2013-06-06 03:12:00,
2013-06-05 23:17:00,55.9,51.8,30.14,East,99,0.0,0.0,86,0.00,,CLR,0.00,VWS V14.00,2013-06-06 03:17:00,
2013-06-05 23:22:00,55.5,51.7,30.14,East,99,0.0,0.0,87,0.00,,CLR,0.00,VWS V14.00,2013-06-06 03:22:00,
2013-06-05 23:27:00,55.3,51.5,30.14,East,99,0.0,1.0,87,0.00,,CLR,0.00,VWS V14.00,2013-06-06 03:27:00,
2013-06-05 23:30:00,55.3,51.8,30.14,East,98,0.0,1.0,88,0.00,,OVC009,0.00,VWS V14.00,2013-06-06 03:30:00,
2013-06-05 23:32:00,55.1,51.6,30.14,East,99,0.0,0.0,88,0.00,,CLR,0.00,VWS V14.00,2013-06-06 03:32:00,
2013-06-05 23:37:00,54.9,51.4,30.13,East,99,0.0,0.0,88,0.00,,CLR,0.00,VWS V14.00,2013-06-06 03:37:00,
2013-06-05 23:42:00,54.7,51.2,30.13,East,98,0.0,0.0,88,0.00,,CLR,0.00,VWS V14.00,2013-06-06 03:42:00,
2013-06-05 23:47:00,54.5,51.3,30.13,East,99,0.0,0.0,89,0.00,,CLR,0.00,VWS V14.00,2013-06-06 03:47:00,
2013-06-05 23:52:00,54.3,51.1,30.13,East,99,0.0,1.0,89,0.00,,CLR,0.00,VWS V14.00,2013-06-06 03:52:00,
2013-06-05 23:58:00,54.0,50.8,30.13,East,98,0.0,1.0,89,0.00,,CLR,0.00,VWS V14.00,2013-06-06 03:58:00,